Time;durP1;ratioP1;P1;durP2;ratioP2;P2;SDS_P1;SDS_P2;PMS_P1;PMS_P2;Temp;Humidity;BMP_temperature;BMP_pressure;BME280_temperature;BME280_humidity;BME280_pressure;Samples;Min_cycle;Max_cycle;Signal;HPM_P1;HPM_P2
2020/12/20 00:00:33;;;;;;;5.20;2.10;;;10.20;99.90;;;;;;5086386;28;20287;-78
2020/12/20 00:03:00;;;;;;;5.03;2.17;;;10.20;99.90;;;;;;5079496;28;20274;-78
2020/12/20 00:05:27;;;;;;;5.90;2.80;;;10.20;99.90;;;;;;5081499;28;20237;-78
2020/12/20 00:07:54;;;;;;;6.10;2.43;;;10.20;99.90;;;;;;5074472;28;20198;-78
2020/12/20 00:10:21;;;;;;;8.07;2.60;;;10.30;99.90;;;;;;5083423;28;20193;-78
2020/12/20 00:12:49;;;;;;;7.90;2.90;;;10.20;99.90;;;;;;5092425;28;20207;-78
2020/12/20 00:15:16;;;;;;;6.60;2.50;;;10.20;99.90;;;;;;5094288;28;20223;-78
2020/12/20 00:17:46;;;;;;;6.87;2.83;;;10.20;99.90;;;;;;5090710;28;20198;-80
2020/12/20 00:20:12;;;;;;;7.43;2.47;;;10.20;99.90;;;;;;5081856;28;20474;-77
2020/12/20 00:22:39;;;;;;;4.67;2.40;;;10.20;99.90;;;;;;5085234;28;20309;-78
2020/12/20 00:25:05;;;;;;;6.87;2.40;;;10.20;99.90;;;;;;5075252;28;20221;-78
2020/12/20 00:27:32;;;;;;;5.83;2.30;;;10.20;99.90;;;;;;5076361;28;20529;-79
2020/12/20 00:29:59;;;;;;;9.30;2.33;;;10.20;99.90;;;;;;5083536;28;20673;-78
2020/12/20 00:32:25;;;;;;;7.73;2.37;;;10.20;99.90;;;;;;5074077;28;20300;-80
2020/12/20 00:34:52;;;;;;;11.10;2.50;;;10.20;99.90;;;;;;5097992;28;20198;-81
2020/12/20 00:37:18;;;;;;;5.77;2.10;;;10.20;99.90;;;;;;5094841;28;20281;-78
2020/12/20 00:39:45;;;;;;;6.33;2.20;;;10.20;99.90;;;;;;5086022;28;20289;-79
2020/12/20 00:42:11;;;;;;;9.03;2.70;;;10.20;99.90;;;;;;5090623;28;20574;-78
2020/12/20 00:44:37;;;;;;;5.23;2.47;;;10.30;99.90;;;;;;5082943;28;20775;-79
2020/12/20 00:47:05;;;;;;;7.57;2.33;;;10.30;99.90;;;;;;5075962;28;20229;-77
2020/12/20 00:49:33;;;;;;;6.83;2.43;;;10.20;99.90;;;;;;5076845;28;20211;-77
2020/12/20 00:52:01;;;;;;;5.50;2.40;;;10.20;99.90;;;;;;5093714;28;20228;-81
2020/12/20 00:54:28;;;;;;;7.60;2.60;;;10.20;99.90;;;;;;5087553;28;20199;-78
2020/12/20 00:56:55;;;;;;;7.47;2.63;;;10.20;99.90;;;;;;5074742;28;20290;-79
2020/12/20 00:59:21;;;;;;;6.73;2.47;;;10.20;99.90;;;;;;5080290;28;20207;-77
2020/12/20 01:01:47;;;;;;;9.47;2.60;;;10.30;99.90;;;;;;5093611;28;20214;-78
2020/12/20 01:04:15;;;;;;;7.47;2.23;;;10.30;99.90;;;;;;5073743;28;20706;-78
2020/12/20 01:06:41;;;;;;;5.73;2.50;;;10.20;99.90;;;;;;5075919;28;20286;-79
2020/12/20 01:09:07;;;;;;;6.57;2.50;;;10.30;99.90;;;;;;5084954;28;20199;-78
2020/12/20 01:11:34;;;;;;;9.63;2.87;;;10.30;99.90;;;;;;5084828;28;20213;-78
2020/12/20 01:14:03;;;;;;;7.13;2.50;;;10.30;99.90;;;;;;5086824;28;20611;-79
2020/12/20 01:16:30;;;;;;;7.50;3.07;;;10.40;99.90;;;;;;5073236;28;20197;-78
2020/12/20 01:18:57;;;;;;;9.70;2.53;;;10.40;99.90;;;;;;5083748;28;20731;-80
2020/12/20 01:21:25;;;;;;;6.73;2.53;;;10.40;99.90;;;;;;5090944;28;20196;-78
2020/12/20 01:23:51;;;;;;;9.60;3.27;;;10.30;99.90;;;;;;5093085;28;20319;-80
2020/12/20 01:26:18;;;;;;;8.97;2.40;;;10.40;99.90;;;;;;5087912;28;20249;-78
2020/12/20 01:28:44;;;;;;;9.07;2.47;;;10.40;99.90;;;;;;5089053;28;20198;-78
2020/12/20 01:31:12;;;;;;;5.13;2.50;;;10.30;99.90;;;;;;5072988;28;20195;-78
2020/12/20 01:33:39;;;;;;;8.73;2.60;;;10.40;99.90;;;;;;5073884;28;20249;-80
2020/12/20 01:36:05;;;;;;;6.67;2.83;;;10.50;99.90;;;;;;5076303;28;20228;-80
2020/12/20 01:38:33;;;;;;;11.00;2.80;;;10.40;99.90;;;;;;5091643;28;20204;-80
2020/12/20 01:40:59;;;;;;;7.30;2.60;;;10.40;99.90;;;;;;5088931;28;20225;-80
2020/12/20 01:43:28;;;;;;;9.53;2.77;;;10.40;99.90;;;;;;5078682;28;20202;-80
2020/12/20 01:45:54;;;;;;;9.37;2.47;;;10.40;99.90;;;;;;5090996;28;20201;-80
2020/12/20 01:48:21;;;;;;;7.00;2.60;;;10.40;99.90;;;;;;5072850;28;20203;-80
2020/12/20 01:50:48;;;;;;;5.73;2.40;;;10.50;99.90;;;;;;5092021;28;20216;-78
2020/12/20 01:53:15;;;;;;;9.23;2.67;;;10.50;99.90;;;;;;5091089;28;20199;-79
2020/12/20 01:55:43;;;;;;;13.00;2.50;;;10.50;99.90;;;;;;5092560;28;20201;-80
2020/12/20 01:58:09;;;;;;;6.50;2.43;;;10.40;99.90;;;;;;5078613;28;20194;-80
2020/12/20 02:00:36;;;;;;;6.40;2.57;;;10.40;99.90;;;;;;5079068;28;20204;-78
2020/12/20 02:03:03;;;;;;;7.90;2.50;;;10.40;99.90;;;;;;5077785;28;20700;-80
2020/12/20 02:05:29;;;;;;;8.83;2.67;;;10.30;99.90;;;;;;5073108;28;20229;-80
2020/12/20 02:07:56;;;;;;;7.93;2.43;;;10.40;99.90;;;;;;5077777;28;20198;-80
2020/12/20 02:10:22;;;;;;;9.73;3.10;;;10.40;99.90;;;;;;5092680;28;20197;-78
2020/12/20 02:12:49;;;;;;;5.87;2.63;;;10.30;99.90;;;;;;5080466;28;20233;-78
2020/12/20 02:15:16;;;;;;;13.13;2.97;;;10.40;99.90;;;;;;5077908;28;20284;-79
2020/12/20 02:17:42;;;;;;;11.20;2.70;;;10.30;99.90;;;;;;5092213;28;20191;-79
2020/12/20 02:20:09;;;;;;;6.10;2.60;;;10.30;99.90;;;;;;5081769;28;20291;-79
2020/12/20 02:22:36;;;;;;;7.90;2.57;;;10.40;99.90;;;;;;5076792;28;20197;-80
2020/12/20 02:25:03;;;;;;;11.40;2.80;;;10.30;99.90;;;;;;5073201;28;20236;-80
2020/12/20 02:27:29;;;;;;;9.83;2.53;;;10.30;99.90;;;;;;5074005;28;20198;-79
2020/12/20 02:29:56;;;;;;;7.03;2.80;;;10.30;99.90;;;;;;5072626;28;20197;-79
2020/12/20 02:32:22;;;;;;;11.03;3.00;;;10.20;99.90;;;;;;5075655;28;20190;-79
2020/12/20 02:34:48;;;;;;;7.43;3.07;;;10.30;99.90;;;;;;5088381;28;20228;-79
2020/12/20 02:37:17;;;;;;;9.00;2.70;;;10.30;99.90;;;;;;5077914;28;20294;-79
2020/12/20 02:39:44;;;;;;;7.87;2.80;;;10.30;99.90;;;;;;5084555;28;20201;-79
2020/12/20 02:42:11;;;;;;;7.77;3.00;;;10.30;99.90;;;;;;5082642;28;20494;-79
2020/12/20 02:44:37;;;;;;;9.67;2.70;;;10.20;99.90;;;;;;5090571;28;20231;-78
2020/12/20 02:47:04;;;;;;;8.90;2.73;;;10.20;99.90;;;;;;5090594;28;20195;-79
2020/12/20 02:49:30;;;;;;;10.83;2.87;;;10.20;99.90;;;;;;5075952;28;20198;-79
2020/12/20 02:51:57;;;;;;;11.17;2.63;;;10.20;99.90;;;;;;5073342;28;20193;-79
2020/12/20 02:54:23;;;;;;;9.97;3.07;;;10.30;99.90;;;;;;5076226;28;20191;-80
2020/12/20 02:56:50;;;;;;;9.03;2.83;;;10.20;99.90;;;;;;5079931;28;20202;-80
2020/12/20 02:59:16;;;;;;;11.63;3.10;;;10.20;99.90;;;;;;5091161;28;20197;-78
2020/12/20 03:01:43;;;;;;;8.97;3.20;;;10.20;99.90;;;;;;5088840;28;20197;-79
2020/12/20 03:04:09;;;;;;;12.47;2.97;;;10.20;99.90;;;;;;5081382;28;20283;-79
2020/12/20 03:06:35;;;;;;;9.00;2.63;;;10.20;99.90;;;;;;5083931;28;20196;-79
2020/12/20 03:09:02;;;;;;;12.13;2.77;;;10.10;99.90;;;;;;5091845;28;20193;-79
2020/12/20 03:11:28;;;;;;;10.70;2.50;;;10.10;99.90;;;;;;5075640;28;20196;-79
2020/12/20 03:13:55;;;;;;;11.40;2.90;;;10.20;99.90;;;;;;5080780;28;20665;-79
2020/12/20 03:16:22;;;;;;;10.40;2.67;;;10.20;99.90;;;;;;5081013;28;20313;-78
2020/12/20 03:18:48;;;;;;;12.30;2.93;;;10.20;99.90;;;;;;5095831;28;20284;-80
2020/12/20 03:21:14;;;;;;;10.63;2.93;;;10.20;99.90;;;;;;5088095;28;20231;-80
2020/12/20 03:23:41;;;;;;;9.27;2.50;;;10.20;99.90;;;;;;5094119;28;20215;-80
2020/12/20 03:26:07;;;;;;;12.40;2.70;;;10.20;99.90;;;;;;5087881;28;20230;-80
2020/12/20 03:28:34;;;;;;;10.73;2.63;;;10.30;99.90;;;;;;5098050;28;20209;-79
2020/12/20 03:31:01;;;;;;;11.50;3.07;;;10.20;99.90;;;;;;5095127;28;20205;-80
2020/12/20 03:33:28;;;;;;;10.43;2.67;;;10.20;99.90;;;;;;5104149;28;20303;-80
2020/12/20 03:35:54;;;;;;;8.40;2.77;;;10.20;99.90;;;;;;5101437;28;20214;-79
2020/12/20 03:38:20;;;;;;;6.93;2.33;;;10.20;99.90;;;;;;5097905;28;20201;-80
2020/12/20 03:40:47;;;;;;;10.13;3.07;;;10.10;99.90;;;;;;5085950;28;20570;-80
2020/12/20 03:43:13;;;;;;;10.27;2.87;;;10.20;99.90;;;;;;5086462;28;20575;-78
2020/12/20 03:45:39;;;;;;;12.13;2.57;;;10.20;99.90;;;;;;5085917;28;20310;-79
2020/12/20 03:48:07;;;;;;;14.57;2.97;;;10.20;99.90;;;;;;5086361;28;20287;-79
2020/12/20 03:50:34;;;;;;;10.53;2.90;;;10.20;99.90;;;;;;5079625;28;20202;-79
2020/12/20 03:53:00;;;;;;;10.67;3.03;;;10.30;99.90;;;;;;5095149;28;20718;-79
2020/12/20 03:55:27;;;;;;;13.27;2.90;;;10.30;99.90;;;;;;5089838;28;20204;-81
2020/12/20 03:57:53;;;;;;;9.10;2.57;;;10.30;99.90;;;;;;5074769;28;20199;-79
2020/12/20 04:00:19;;;;;;;12.00;2.70;;;10.30;99.90;;;;;;5091072;28;20257;-77
2020/12/20 04:02:46;;;;;;;12.63;3.33;;;10.20;99.90;;;;;;5092015;28;20198;-77
2020/12/20 04:05:13;;;;;;;13.23;2.80;;;10.10;99.90;;;;;;5082276;28;20223;-81
2020/12/20 04:07:41;;;;;;;9.80;2.90;;;10.00;99.90;;;;;;5074708;28;20223;-81
2020/12/20 04:10:08;;;;;;;9.90;2.30;;;10.10;99.90;;;;;;5080343;28;20296;-79
2020/12/20 04:12:34;;;;;;;10.03;2.77;;;10.10;99.90;;;;;;5092188;28;20282;-79
2020/12/20 04:15:01;;;;;;;12.03;2.60;;;10.10;99.90;;;;;;5094465;28;20304;-78
2020/12/20 04:17:27;;;;;;;11.07;2.93;;;10.10;99.90;;;;;;5088417;28;20752;-79
2020/12/20 04:19:53;;;;;;;11.07;2.90;;;10.10;99.90;;;;;;5094650;28;20660;-79
2020/12/20 04:22:21;;;;;;;10.20;2.70;;;10.10;99.90;;;;;;5078201;28;20205;-78
2020/12/20 04:24:47;;;;;;;11.93;3.20;;;10.10;99.90;;;;;;5085017;28;20229;-79
2020/12/20 04:27:13;;;;;;;12.97;2.90;;;10.10;99.90;;;;;;5086724;28;20202;-78
2020/12/20 04:29:40;;;;;;;10.73;2.83;;;10.00;99.90;;;;;;5077456;28;20285;-82
2020/12/20 04:32:06;;;;;;;15.67;2.63;;;10.00;99.90;;;;;;5094397;28;20205;-80
2020/12/20 04:34:32;;;;;;;12.60;2.93;;;9.90;99.90;;;;;;5092244;28;20197;-80
2020/12/20 04:36:59;;;;;;;17.70;3.47;;;9.90;99.90;;;;;;5093594;28;20228;-79
2020/12/20 04:39:26;;;;;;;12.73;3.23;;;9.90;99.90;;;;;;5073882;28;20280;-79
2020/12/20 04:41:52;;;;;;;16.20;3.80;;;9.80;99.90;;;;;;5073707;28;20728;-80
2020/12/20 04:44:19;;;;;;;14.20;3.70;;;9.90;99.90;;;;;;5078169;28;20224;-81
2020/12/20 04:46:47;;;;;;;13.93;3.10;;;9.80;99.90;;;;;;5081602;28;20249;-80
2020/12/20 04:49:14;;;;;;;10.13;3.43;;;9.80;99.90;;;;;;5074820;28;20201;-80
2020/12/20 04:51:41;;;;;;;12.20;4.10;;;9.80;99.90;;;;;;5083054;28;20208;-79
2020/12/20 04:54:09;;;;;;;14.60;3.80;;;9.80;99.90;;;;;;5093429;28;20208;-79
2020/12/20 04:56:38;;;;;;;13.73;3.63;;;9.80;99.90;;;;;;5083725;28;20202;-79
2020/12/20 04:59:06;;;;;;;10.20;3.00;;;9.80;99.90;;;;;;5073533;28;20213;-80
2020/12/20 05:01:33;;;;;;;12.07;3.50;;;9.80;99.90;;;;;;5091620;28;20200;-79
2020/12/20 05:03:59;;;;;;;17.97;3.50;;;9.80;99.90;;;;;;5084277;28;20316;-79
2020/12/20 05:06:27;;;;;;;13.83;3.60;;;9.80;99.90;;;;;;5090176;28;20658;-79
2020/12/20 05:08:59;;;;;;;15.23;3.30;;;9.90;99.90;;;;;;5093417;28;20197;-79
2020/12/20 05:11:33;;;;;;;12.90;3.90;;;9.80;99.90;;;;;;5092911;28;20201;-80
2020/12/20 05:14:00;;;;;;;17.90;3.37;;;9.80;99.90;;;;;;5086816;28;20283;-79
2020/12/20 05:16:34;;;;;;;14.93;3.80;;;9.70;99.90;;;;;;5090915;28;20647;-79
2020/12/20 05:19:01;;;;;;;10.27;3.47;;;9.80;99.90;;;;;;5082739;28;20577;-79
2020/12/20 05:21:28;;;;;;;13.55;3.97;;;9.80;99.90;;;;;;5083228;28;20527;-80
2020/12/20 05:23:55;;;;;;;21.67;3.77;;;9.70;99.90;;;;;;5088435;28;20219;-80
2020/12/20 05:26:26;;;;;;;14.63;3.97;;;9.70;99.90;;;;;;5081067;28;20619;-79
2020/12/20 05:28:53;;;;;;;13.23;3.03;;;9.80;99.90;;;;;;5090092;28;20191;-79
2020/12/20 05:31:21;;;;;;;12.50;3.20;;;9.70;99.90;;;;;;5072908;28;20201;-80
2020/12/20 05:33:49;;;;;;;10.57;3.00;;;9.60;99.90;;;;;;5078577;28;20205;-80
2020/12/20 05:36:24;;;;;;;12.30;3.33;;;9.60;99.90;;;;;;5090160;28;20611;-79
2020/12/20 05:38:50;;;;;;;9.57;2.70;;;9.60;99.90;;;;;;5072593;28;20202;-79
2020/12/20 05:41:30;;;;;;;14.23;3.43;;;9.60;99.90;;;;;;5075447;28;20616;-80
2020/12/20 05:44:18;;;;;;;14.70;3.10;;;9.60;99.90;;;;;;5088300;28;20226;-80
2020/12/20 05:46:47;;;;;;;12.47;2.93;;;9.50;99.90;;;;;;5080167;28;20208;-80
2020/12/20 05:49:21;;;;;;;9.60;3.10;;;9.50;99.90;;;;;;5087163;28;20197;-80
2020/12/20 05:52:07;;;;;;;11.70;3.23;;;9.40;99.90;;;;;;5092275;28;20241;-79
2020/12/20 05:54:37;;;;;;;19.27;3.67;;;9.40;99.90;;;;;;5089225;28;20649;-79
2020/12/20 05:57:09;;;;;;;18.40;3.30;;;9.30;99.90;;;;;;5084557;28;20291;-79
2020/12/20 05:59:35;;;;;;;16.53;3.07;;;9.30;99.90;;;;;;5073474;28;20195;-81
2020/12/20 06:02:04;;;;;;;11.90;2.93;;;9.30;99.90;;;;;;5079024;28;20201;-79
2020/12/20 06:04:31;;;;;;;14.67;3.30;;;9.30;99.90;;;;;;5091793;28;20311;-81
2020/12/20 06:06:58;;;;;;;16.57;3.40;;;9.40;99.90;;;;;;5072232;28;20673;-80
2020/12/20 06:09:26;;;;;;;16.57;3.17;;;9.30;99.90;;;;;;5072770;28;20681;-78
2020/12/20 06:11:57;;;;;;;12.30;3.47;;;9.30;99.90;;;;;;5072628;28;20197;-79
2020/12/20 06:14:25;;;;;;;15.60;3.07;;;9.10;99.90;;;;;;5086187;28;20198;-78
2020/12/20 06:17:13;;;;;;;15.33;2.83;;;9.20;99.90;;;;;;5082955;28;20361;-79
2020/12/20 06:20:00;;;;;;;13.50;3.13;;;9.20;99.90;;;;;;5089958;28;20280;-80
2020/12/20 06:22:29;;;;;;;9.87;3.17;;;9.10;99.90;;;;;;5072284;28;20210;-79
2020/12/20 06:24:56;;;;;;;15.23;3.27;;;9.10;99.90;;;;;;5073287;28;20226;-79
2020/12/20 06:27:25;;;;;;;13.03;2.93;;;9.10;99.90;;;;;;5079871;28;20286;-80
2020/12/20 06:29:54;;;;;;;17.77;4.10;;;9.20;99.90;;;;;;5081642;28;20187;-79
2020/12/20 06:32:35;;;;;;;12.70;3.23;;;9.10;99.90;;;;;;5075954;28;20711;-79
2020/12/20 06:35:12;;;;;;;17.47;3.70;;;9.20;99.90;;;;;;5072485;28;20237;-80
2020/12/20 06:37:41;;;;;;;18.00;3.27;;;9.20;99.90;;;;;;5092516;28;20245;-80
2020/12/20 06:40:07;;;;;;;15.33;3.13;;;9.20;99.90;;;;;;5093722;28;20193;-80
2020/12/20 06:42:39;;;;;;;14.87;3.07;;;9.10;99.90;;;;;;5076707;28;20212;-79
2020/12/20 06:45:16;;;;;;;11.90;2.50;;;9.10;99.90;;;;;;5079146;28;20224;-80
2020/12/20 06:47:45;;;;;;;15.93;3.47;;;9.10;99.90;;;;;;5077625;28;20265;-80
2020/12/20 06:50:12;;;;;;;14.80;3.30;;;9.10;99.90;;;;;;5083899;28;20232;-77
2020/12/20 06:52:48;;;;;;;14.60;3.20;;;9.10;99.90;;;;;;5079481;28;20204;-79
2020/12/20 06:55:15;;;;;;;13.80;3.70;;;9.10;99.90;;;;;;5091345;28;20657;-80
2020/12/20 06:58:10;;;;;;;18.07;3.30;;;9.10;99.90;;;;;;5090581;28;20281;-81
2020/12/20 07:00:50;;;;;;;15.13;3.00;;;9.00;99.90;;;;;;5089091;28;20208;-80
2020/12/20 07:03:38;;;;;;;12.93;2.77;;;9.00;99.90;;;;;;5086142;28;20284;-79
2020/12/20 07:06:15;;;;;;;13.90;3.00;;;9.00;99.90;;;;;;5091025;28;20693;-80
2020/12/20 07:08:41;;;;;;;18.13;3.10;;;8.90;99.90;;;;;;5088146;28;20189;-80
2020/12/20 07:11:18;;;;;;;10.27;2.77;;;9.00;99.90;;;;;;5084300;28;20204;-79
2020/12/20 07:13:46;;;;;;;12.97;3.10;;;9.00;99.90;;;;;;5078509;28;20258;-79
2020/12/20 07:16:14;;;;;;;22.40;2.93;;;9.00;99.90;;;;;;5082669;28;20224;-79
2020/12/20 07:18:55;;;;;;;14.70;2.90;;;9.00;99.90;;;;;;5095906;28;20283;-78
2020/12/20 07:21:55;;;;;;;11.93;3.30;;;9.00;99.90;;;;;;5095736;28;20196;-80
2020/12/20 07:24:23;;;;;;;14.80;2.87;;;9.00;99.90;;;;;;5095724;28;20218;-78
2020/12/20 07:26:51;;;;;;;16.13;3.10;;;9.00;99.90;;;;;;5095117;28;20198;-79
2020/12/20 07:29:18;;;;;;;13.67;3.33;;;9.00;99.90;;;;;;5094524;28;20197;-79
2020/12/20 07:31:44;;;;;;;9.60;2.40;;;9.00;99.90;;;;;;5087277;28;20283;-79
2020/12/20 07:34:12;;;;;;;10.27;2.57;;;9.00;99.90;;;;;;5095024;28;20734;-79
2020/12/20 07:36:39;;;;;;;12.30;2.67;;;9.10;99.90;;;;;;5092752;28;20254;-79
2020/12/20 07:39:06;;;;;;;14.37;2.80;;;9.10;99.90;;;;;;5094932;28;20687;-79
2020/12/20 07:41:33;;;;;;;11.60;2.67;;;9.10;99.90;;;;;;5095104;28;20203;-79
2020/12/20 07:44:04;;;;;;;20.30;3.20;;;9.10;99.90;;;;;;5086267;28;20313;-78
2020/12/20 07:46:31;;;;;;;14.80;3.30;;;9.00;99.90;;;;;;5087986;28;20194;-78
2020/12/20 07:49:03;;;;;;;9.73;2.53;;;9.10;99.90;;;;;;5090647;28;20222;-80
2020/12/20 07:51:30;;;;;;;12.27;2.67;;;9.10;99.90;;;;;;5085339;28;20274;-79
2020/12/20 07:53:59;;;;;;;16.93;2.73;;;9.00;99.90;;;;;;5095332;28;20211;-79
2020/12/20 07:56:26;;;;;;;17.37;2.60;;;9.00;99.90;;;;;;5087733;28;20553;-79
2020/12/20 07:58:54;;;;;;;11.07;2.77;;;9.10;99.90;;;;;;5080312;28;20673;-80
2020/12/20 08:01:21;;;;;;;20.50;3.23;;;9.10;99.90;;;;;;5075829;28;20653;-79
2020/12/20 08:03:49;;;;;;;13.73;3.03;;;9.20;99.90;;;;;;5082843;28;20201;-79
2020/12/20 08:06:16;;;;;;;15.53;3.00;;;9.30;99.90;;;;;;5088961;28;20331;-79
2020/12/20 08:08:44;;;;;;;16.50;2.83;;;9.30;99.90;;;;;;5080947;28;20189;-80
2020/12/20 08:11:19;;;;;;;16.80;3.00;;;9.20;99.90;;;;;;5084896;28;20659;-78
2020/12/20 08:13:53;;;;;;;15.30;2.90;;;9.20;99.90;;;;;;5078044;28;20251;-79
2020/12/20 08:16:24;;;;;;;12.57;3.03;;;9.20;99.90;;;;;;5074500;28;20201;-78
2020/12/20 08:18:55;;;;;;;14.03;2.87;;;9.20;99.90;;;;;;5081899;28;20215;-79
2020/12/20 08:21:31;;;;;;;22.67;3.40;;;9.20;99.90;;;;;;5083307;28;20204;-78
2020/12/20 08:24:00;;;;;;;21.63;2.97;;;9.20;99.90;;;;;;5093441;28;20196;-78
2020/12/20 08:26:30;;;;;;;17.52;4.10;;;9.20;99.90;;;;;;5082251;28;20447;-78
2020/12/20 08:28:57;;;;;;;10.93;2.60;;;9.30;99.90;;;;;;5083056;28;20729;-78
2020/12/20 08:31:28;;;;;;;19.17;3.77;;;9.30;99.90;;;;;;5076647;28;20647;-78
2020/12/20 08:33:55;;;;;;;11.67;3.30;;;9.40;99.90;;;;;;5092252;28;20190;-78
2020/12/20 08:36:22;;;;;;;13.40;3.00;;;9.30;99.90;;;;;;5093495;28;20195;-79
2020/12/20 08:38:48;;;;;;;11.90;2.80;;;9.40;99.90;;;;;;5094555;28;20206;-79
2020/12/20 08:41:21;;;;;;;15.50;3.20;;;9.50;99.90;;;;;;5077225;28;20217;-81
2020/12/20 08:43:48;;;;;;;17.53;3.60;;;9.60;99.90;;;;;;5081683;28;20238;-79
2020/12/20 08:46:31;;;;;;;15.40;3.30;;;9.70;99.90;;;;;;5083300;28;20225;-79
2020/12/20 08:49:27;;;;;;;10.30;2.70;;;9.70;99.90;;;;;;5088123;28;20193;-79
2020/12/20 08:52:06;;;;;;;17.77;3.10;;;9.80;99.90;;;;;;4992699;28;20196;-79
2020/12/20 08:54:33;;;;;;;16.60;3.60;;;9.80;99.90;;;;;;5068040;28;20205;-78
2020/12/20 08:57:03;;;;;;;18.03;3.30;;;9.80;99.90;;;;;;5075217;28;20288;-79
2020/12/20 08:59:32;;;;;;;11.67;3.07;;;9.80;99.90;;;;;;5076401;28;20207;-79
2020/12/20 09:01:59;;;;;;;9.20;3.23;;;9.80;99.90;;;;;;5078911;28;20290;-78
2020/12/20 09:04:27;;;;;;;11.53;2.70;;;9.80;99.90;;;;;;5087922;28;20216;-79
2020/12/20 09:06:58;;;;;;;15.50;2.97;;;9.80;99.90;;;;;;5093608;28;20201;-79
2020/12/20 09:09:26;;;;;;;16.63;3.57;;;9.80;99.90;;;;;;5093009;28;20290;-78
2020/12/20 09:11:52;;;;;;;13.60;3.40;;;9.80;99.90;;;;;;5090355;28;20211;-79
2020/12/20 09:14:19;;;;;;;11.93;2.93;;;9.70;99.90;;;;;;5085868;28;20213;-80
2020/12/20 09:16:46;;;;;;;15.37;3.30;;;9.60;99.90;;;;;;5085942;28;20201;-79
2020/12/20 09:19:13;;;;;;;17.43;3.07;;;9.60;99.90;;;;;;5082699;28;20205;-79
2020/12/20 09:21:39;;;;;;;13.70;3.30;;;9.60;99.90;;;;;;5075200;28;20338;-79
2020/12/20 09:24:06;;;;;;;22.07;3.47;;;9.60;99.90;;;;;;5081236;28;20232;-78
2020/12/20 09:26:32;;;;;;;16.43;2.80;;;9.70;99.90;;;;;;5093157;28;20702;-78
2020/12/20 09:29:06;;;;;;;12.70;2.87;;;9.60;99.90;;;;;;5093352;28;20286;-78
2020/12/20 09:31:33;;;;;;;11.00;3.03;;;9.60;99.90;;;;;;5082066;28;20272;-79
2020/12/20 09:34:02;;;;;;;13.27;3.47;;;9.70;99.90;;;;;;5093106;28;20304;-80
2020/12/20 09:36:29;;;;;;;14.80;3.47;;;9.70;99.90;;;;;;5092967;28;20701;-80
2020/12/20 09:38:58;;;;;;;17.03;2.73;;;9.70;99.90;;;;;;5075396;28;20212;-80
2020/12/20 09:41:25;;;;;;;16.80;3.03;;;9.70;99.90;;;;;;5072582;28;20368;-80
2020/12/20 09:43:53;;;;;;;14.77;2.90;;;9.70;99.90;;;;;;5072937;28;20246;-80
2020/12/20 09:46:21;;;;;;;20.77;4.00;;;9.90;99.90;;;;;;5072998;28;20241;-81
2020/12/20 09:48:49;;;;;;;13.87;2.73;;;9.90;99.90;;;;;;5072958;28;20201;-81
2020/12/20 09:51:16;;;;;;;12.63;3.10;;;10.10;99.90;;;;;;5092146;28;20288;-82
2020/12/20 09:53:42;;;;;;;13.43;2.83;;;10.30;99.90;;;;;;5092966;28;20242;-80
2020/12/20 09:56:08;;;;;;;13.27;3.10;;;10.40;99.90;;;;;;5092773;28;20205;-81
2020/12/20 09:58:35;;;;;;;16.60;3.27;;;10.60;99.90;;;;;;5092770;28;20295;-81
2020/12/20 10:01:01;;;;;;;12.13;2.60;;;10.70;99.90;;;;;;5092908;28;20201;-80
2020/12/20 10:03:28;;;;;;;13.73;2.63;;;10.80;99.90;;;;;;5089007;28;20209;-79
2020/12/20 10:05:59;;;;;;;13.43;2.83;;;11.00;99.90;;;;;;5092938;28;20221;-79
2020/12/20 10:08:26;;;;;;;15.07;3.13;;;11.10;99.90;;;;;;5092488;28;20250;-80
2020/12/20 10:10:53;;;;;;;19.07;3.27;;;11.20;99.90;;;;;;5092529;28;20737;-80
2020/12/20 10:13:20;;;;;;;15.20;3.00;;;11.20;99.90;;;;;;5092293;28;20294;-80
2020/12/20 10:15:46;;;;;;;13.97;3.10;;;11.30;99.90;;;;;;5092426;28;20285;-79
2020/12/20 10:18:13;;;;;;;12.90;2.80;;;11.30;99.90;;;;;;5091060;28;20194;-79
2020/12/20 10:20:39;;;;;;;20.20;3.00;;;11.20;99.90;;;;;;5092671;28;20221;-79
2020/12/20 10:23:07;;;;;;;10.57;2.73;;;11.20;99.90;;;;;;5092246;28;20698;-79
2020/12/20 10:25:33;;;;;;;15.27;3.40;;;11.10;99.90;;;;;;5076390;28;20352;-78
2020/12/20 10:28:00;;;;;;;15.57;2.83;;;11.00;99.90;;;;;;5088903;28;20197;-79
2020/12/20 10:30:27;;;;;;;11.80;2.50;;;10.80;99.90;;;;;;5091554;28;20287;-79
2020/12/20 10:32:54;;;;;;;13.87;3.17;;;10.90;99.90;;;;;;5088673;28;20783;-80
2020/12/20 10:35:23;;;;;;;11.60;2.87;;;11.10;99.90;;;;;;5092110;28;20193;-80
2020/12/20 10:37:50;;;;;;;16.23;2.73;;;11.30;99.90;;;;;;5091823;28;20676;-79
2020/12/20 10:40:18;;;;;;;13.77;2.67;;;11.40;99.90;;;;;;5092203;28;20263;-79
2020/12/20 10:42:46;;;;;;;14.90;2.80;;;11.50;99.90;;;;;;5091769;28;20663;-79
2020/12/20 10:45:12;;;;;;;10.50;2.50;;;11.50;99.90;;;;;;5092160;28;20233;-79
2020/12/20 10:47:39;;;;;;;14.30;3.07;;;11.60;99.90;;;;;;5091546;28;20204;-80
2020/12/20 10:50:06;;;;;;;14.90;2.90;;;11.80;99.90;;;;;;5091280;28;20220;-78
2020/12/20 10:52:33;;;;;;;13.97;3.00;;;11.90;99.90;;;;;;5092167;28;20205;-79
2020/12/20 10:55:00;;;;;;;15.20;2.80;;;11.90;99.90;;;;;;5091484;28;20288;-78
2020/12/20 10:57:27;;;;;;;12.53;2.50;;;11.90;99.90;;;;;;5091120;28;20209;-78
2020/12/20 10:59:54;;;;;;;13.60;2.57;;;11.90;99.90;;;;;;5091951;28;20218;-78
2020/12/20 11:02:21;;;;;;;13.53;2.87;;;11.90;99.90;;;;;;5089575;28;20297;-78
2020/12/20 11:04:47;;;;;;;8.87;2.80;;;11.80;99.90;;;;;;5071906;28;20691;-81
2020/12/20 11:07:15;;;;;;;21.27;4.10;;;11.90;99.90;;;;;;5071747;28;20558;-77
2020/12/20 11:09:42;;;;;;;16.33;3.80;;;12.00;99.90;;;;;;5072451;28;20196;-78
2020/12/20 11:12:08;;;;;;;18.37;3.03;;;12.10;99.90;;;;;;5071985;28;20301;-79
2020/12/20 11:14:35;;;;;;;13.67;2.77;;;12.20;99.90;;;;;;5074976;28;20284;-78
2020/12/20 11:17:02;;;;;;;14.33;3.33;;;12.10;99.90;;;;;;5092203;28;20212;-78
2020/12/20 11:19:29;;;;;;;13.33;3.07;;;12.10;99.90;;;;;;5084742;28;20220;-80
2020/12/20 11:21:57;;;;;;;12.83;2.93;;;12.10;99.90;;;;;;5081643;28;20269;-79
2020/12/20 11:24:24;;;;;;;20.13;3.00;;;12.20;99.90;;;;;;5077346;28;20287;-79
2020/12/20 11:26:52;;;;;;;13.90;3.20;;;12.20;99.90;;;;;;5091791;28;20652;-79
2020/12/20 11:29:19;;;;;;;13.23;2.93;;;12.20;99.90;;;;;;5097258;28;20211;-79
2020/12/20 11:31:47;;;;;;;13.93;3.20;;;12.10;99.90;;;;;;5076387;28;20199;-79
2020/12/20 11:34:14;;;;;;;15.37;3.60;;;12.00;99.90;;;;;;5084546;28;20264;-80
2020/12/20 11:36:42;;;;;;;11.27;2.80;;;12.00;99.90;;;;;;5079659;28;20195;-78
2020/12/20 11:39:09;;;;;;;10.20;2.93;;;12.00;99.90;;;;;;5094390;28;20670;-79
2020/12/20 11:41:36;;;;;;;14.77;3.10;;;12.10;99.90;;;;;;5087844;28;20199;-78
2020/12/20 11:44:05;;;;;;;15.43;3.43;;;12.10;99.90;;;;;;5093092;28;20191;-79
2020/12/20 11:46:32;;;;;;;13.20;2.93;;;12.10;99.90;;;;;;5091363;28;20222;-78
2020/12/20 11:48:59;;;;;;;19.20;3.07;;;11.90;99.90;;;;;;5074539;28;20231;-79
2020/12/20 11:51:27;;;;;;;16.77;2.73;;;11.90;99.90;;;;;;5075017;28;20206;-79
2020/12/20 11:53:54;;;;;;;15.97;3.03;;;11.90;99.90;;;;;;5074811;28;20213;-79
2020/12/20 11:56:21;;;;;;;16.13;3.23;;;12.00;99.90;;;;;;5081237;28;20221;-78
2020/12/20 11:58:47;;;;;;;18.63;2.80;;;11.90;99.90;;;;;;5085057;28;20249;-78
2020/12/20 12:01:20;;;;;;;17.80;3.10;;;12.00;99.90;;;;;;5083619;28;20202;-78
2020/12/20 12:03:47;;;;;;;24.73;4.47;;;12.10;99.90;;;;;;5077097;28;20196;-79
2020/12/20 12:06:14;;;;;;;17.03;3.10;;;12.20;99.90;;;;;;5088045;28;20211;-78
2020/12/20 12:08:44;;;;;;;16.30;2.87;;;12.30;99.90;;;;;;5091359;28;20286;-78
2020/12/20 12:11:11;;;;;;;13.80;2.50;;;12.30;99.90;;;;;;5074249;28;20211;-78
2020/12/20 12:13:37;;;;;;;17.00;3.57;;;12.30;99.90;;;;;;5074526;28;20203;-78
2020/12/20 12:16:04;;;;;;;17.60;3.13;;;12.30;99.90;;;;;;5091619;28;20281;-79
2020/12/20 12:18:30;;;;;;;16.20;3.23;;;12.30;99.90;;;;;;5079335;28;20285;-79
2020/12/20 12:20:57;;;;;;;16.60;3.10;;;12.30;99.90;;;;;;5081681;28;20227;-78
2020/12/20 12:23:24;;;;;;;16.93;3.03;;;12.20;99.90;;;;;;5075351;28;20286;-78
2020/12/20 12:25:50;;;;;;;11.03;2.80;;;12.20;99.90;;;;;;5080593;28;20338;-77
2020/12/20 12:28:16;;;;;;;15.43;2.43;;;12.30;99.90;;;;;;5079176;28;20623;-79
2020/12/20 12:30:43;;;;;;;16.10;2.53;;;12.20;99.90;;;;;;5088404;28;20240;-79
2020/12/20 12:33:09;;;;;;;13.40;2.33;;;12.20;99.90;;;;;;5082820;28;20203;-77
2020/12/20 12:35:36;;;;;;;14.60;2.50;;;12.20;99.90;;;;;;5080460;28;20208;-78
2020/12/20 12:38:02;;;;;;;14.90;2.40;;;12.10;99.90;;;;;;5082801;28;20351;-79
2020/12/20 12:40:29;;;;;;;13.37;2.60;;;12.20;99.90;;;;;;5093906;28;20205;-80
2020/12/20 12:42:56;;;;;;;18.87;3.03;;;12.20;99.90;;;;;;5075529;28;20218;-78
2020/12/20 12:45:23;;;;;;;15.67;3.07;;;12.10;99.90;;;;;;5073134;28;20237;-79
2020/12/20 12:47:49;;;;;;;14.37;2.23;;;12.10;99.90;;;;;;5087632;28;20228;-80